Decoded Metar for UMMS (MINSK 2 in BELARUS) (IATA:MSQ) | Meteo·Mobile Aviation Weather
aviador You're here:

UMMS Decoded Metar

MINSK 2 in BELARUS
Report Time2019-07-21 16:30:00
UTC Time2019-07-21 16:52:05
Flight Rules vfr VFR
Wind220° at 4 kt
W.Decomp.*RWY 13: 0.6 kt HW 4.0 kt RCW
Visibility9999 m
Phenomena:N/A
Clouds:N/A
Expected CloudBase > 5,200 ft AGL from Temp-Dew spread
CeilingNone
Temp27°C (ISA +13)
Dew Point14°C (45% RH)
Heat Index27.1°C
AAT26.8°C
QNH1016 hPa
Density Alt2,326 ft
Elevation673 ft
Report Wrong Elevation
Raw Report
METAR UMMS 211630Z 22002MPS CAVOK 27/14 Q1016 R31R/190067 R31L/CLRD//
NOSIG=

Extra information for UMMS:More info

Metar Taf Metar & Taf Last 4 Metars F.Rules Stats Wind Profile Meteogram Temp Stats Airport Information Weather charts Add Link Nearby VenuesMetar ALERT Operation Metar Decoded Social comments